Hlavní strana
METAR-TAF:

METAR-TAF

Letiště :

Scandinavian Mountains Airport

Sälen Trysil, Švédsko

zeměpisná šířka: 61-09-32N, zeměpisná délka: 12-50-24E, výška: 490 m

Aktuální stav počasí

Zpráva byla vytvořena před 18 minutami, v 16:20 UTC
vítr z různých směrů 3 kt
Teplota 7°C
Vlhkost vzduchu 53%
Tlak 1026 hPa
Viditelnost 10 km a více

METAR: ESKS 281620Z AUTO VRB03KT 9999 NCD 07/M02 Q1026

Čas: 17:38 (16:38 UTC)

Předpověď počasí

Zpráva byla vytvořena před 5 hodinami a 8 minutami, v 11:30 UTC
Předpověď platná od 28 v 12 UTC do 28 v 16 UTC
vítr z různých směrů 2 kt
Viditelnost 10 km a více
Žádná oblačnost pod 1500 m, nevyskytují se cumulonimby.

TAF: ESKS 281130Z 2812/2816 VRB02KT CAVOK

Stav a předpovědi počasí z více než 4 000 letišť (zprávy METAR a TAF).

Červené a žluté tečky na mapě představují dostupné meteorologické stanice.

Když kurzor umístíte na tečku, zobrazí se název stanice.

Pak kliknutím zobrazíte stav a předpověď počasí.

Chcete-li změnit mapu, kliknutím na zelené tlačítko se znaménkem +mapu přiblížíte, kliknutím na zelené tlačítko se znaménkem – mapu oddálíte a kliknutím na zelené šipky přejdete na sousední mapy.


METAR-TAF: